sensor_id;sensor_type;location;lat;lon;timestamp;P1;durP1;ratioP1;P2;durP2;ratioP2
22152;SDS011;11242;50.536;12.688;2022-11-14T00:00:09;21.02;;;14.27;;
22152;SDS011;11242;50.536;12.688;2022-11-14T00:02:54;17.98;;;13.15;;
22152;SDS011;11242;50.536;12.688;2022-11-14T00:05:43;24.50;;;13.65;;
22152;SDS011;11242;50.536;12.688;2022-11-14T00:08:28;17.85;;;12.65;;
22152;SDS011;11242;50.536;12.688;2022-11-14T00:11:12;18.55;;;12.57;;
22152;SDS011;11242;50.536;12.688;2022-11-14T00:13:56;18.40;;;13.40;;
22152;SDS011;11242;50.536;12.688;2022-11-14T00:16:40;18.15;;;12.57;;
22152;SDS011;11242;50.536;12.688;2022-11-14T00:19:25;17.77;;;12.70;;
22152;SDS011;11242;50.536;12.688;2022-11-14T00:22:09;17.10;;;12.77;;
22152;SDS011;11242;50.536;12.688;2022-11-14T00:24:53;17.30;;;12.65;;
22152;SDS011;11242;50.536;12.688;2022-11-14T00:27:37;18.02;;;12.68;;
22152;SDS011;11242;50.536;12.688;2022-11-14T00:30:21;16.85;;;12.32;;
22152;SDS011;11242;50.536;12.688;2022-11-14T00:33:05;16.73;;;12.35;;
22152;SDS011;11242;50.536;12.688;2022-11-14T00:35:50;16.45;;;12.18;;
22152;SDS011;11242;50.536;12.688;2022-11-14T00:38:36;16.00;;;11.95;;
22152;SDS011;11242;50.536;12.688;2022-11-14T00:41:20;15.75;;;11.85;;
22152;SDS011;11242;50.536;12.688;2022-11-14T00:44:04;16.58;;;12.07;;
22152;SDS011;11242;50.536;12.688;2022-11-14T00:46:48;16.45;;;12.15;;
22152;SDS011;11242;50.536;12.688;2022-11-14T00:49:32;17.15;;;12.60;;
22152;SDS011;11242;50.536;12.688;2022-11-14T00:52:16;17.10;;;12.52;;
22152;SDS011;11242;50.536;12.688;2022-11-14T00:55:01;16.55;;;12.20;;
22152;SDS011;11242;50.536;12.688;2022-11-14T00:57:45;17.38;;;13.00;;
22152;SDS011;11242;50.536;12.688;2022-11-14T01:00:29;16.58;;;12.15;;
22152;SDS011;11242;50.536;12.688;2022-11-14T01:03:14;15.25;;;11.85;;
22152;SDS011;11242;50.536;12.688;2022-11-14T01:06:01;15.15;;;11.70;;
22152;SDS011;11242;50.536;12.688;2022-11-14T01:08:51;13.38;;;11.43;;
22152;SDS011;11242;50.536;12.688;2022-11-14T01:11:35;16.08;;;11.73;;
22152;SDS011;11242;50.536;12.688;2022-11-14T01:14:21;16.45;;;11.70;;
22152;SDS011;11242;50.536;12.688;2022-11-14T01:17:05;15.20;;;11.13;;
22152;SDS011;11242;50.536;12.688;2022-11-14T01:19:50;16.08;;;11.93;;
22152;SDS011;11242;50.536;12.688;2022-11-14T01:22:34;15.65;;;11.60;;
22152;SDS011;11242;50.536;12.688;2022-11-14T01:25:18;16.88;;;11.68;;
22152;SDS011;11242;50.536;12.688;2022-11-14T01:28:06;15.95;;;11.60;;
22152;SDS011;11242;50.536;12.688;2022-11-14T01:30:52;14.90;;;11.90;;
22152;SDS011;11242;50.536;12.688;2022-11-14T01:33:36;16.33;;;12.02;;
22152;SDS011;11242;50.536;12.688;2022-11-14T01:36:20;16.10;;;11.75;;
22152;SDS011;11242;50.536;12.688;2022-11-14T01:39:05;13.60;;;10.70;;
22152;SDS011;11242;50.536;12.688;2022-11-14T01:41:49;17.60;;;11.95;;
22152;SDS011;11242;50.536;12.688;2022-11-14T01:44:38;16.23;;;11.27;;
22152;SDS011;11242;50.536;12.688;2022-11-14T01:47:29;16.55;;;11.68;;
22152;SDS011;11242;50.536;12.688;2022-11-14T01:50:15;14.63;;;11.77;;
22152;SDS011;11242;50.536;12.688;2022-11-14T01:52:59;16.40;;;11.65;;
22152;SDS011;11242;50.536;12.688;2022-11-14T01:55:44;14.30;;;10.93;;
22152;SDS011;11242;50.536;12.688;2022-11-14T01:58:28;16.67;;;11.77;;
22152;SDS011;11242;50.536;12.688;2022-11-14T02:01:13;16.15;;;11.73;;
22152;SDS011;11242;50.536;12.688;2022-11-14T02:03:58;16.58;;;12.20;;
22152;SDS011;11242;50.536;12.688;2022-11-14T02:06:44;17.08;;;12.30;;
22152;SDS011;11242;50.536;12.688;2022-11-14T02:09:30;15.23;;;11.48;;
22152;SDS011;11242;50.536;12.688;2022-11-14T02:12:18;14.77;;;11.02;;
22152;SDS011;11242;50.536;12.688;2022-11-14T02:15:03;15.82;;;11.85;;
22152;SDS011;11242;50.536;12.688;2022-11-14T02:17:47;16.20;;;11.63;;
22152;SDS011;11242;50.536;12.688;2022-11-14T02:20:35;15.45;;;11.48;;
22152;SDS011;11242;50.536;12.688;2022-11-14T02:23:25;14.70;;;11.48;;
22152;SDS011;11242;50.536;12.688;2022-11-14T02:26:10;16.98;;;11.75;;
22152;SDS011;11242;50.536;12.688;2022-11-14T02:28:54;16.15;;;11.63;;
22152;SDS011;11242;50.536;12.688;2022-11-14T02:31:39;18.23;;;12.00;;
22152;SDS011;11242;50.536;12.688;2022-11-14T02:34:24;18.33;;;13.00;;
22152;SDS011;11242;50.536;12.688;2022-11-14T02:37:08;16.80;;;13.05;;
22152;SDS011;11242;50.536;12.688;2022-11-14T02:39:53;17.63;;;13.50;;
22152;SDS011;11242;50.536;12.688;2022-11-14T02:42:37;21.63;;;13.70;;
22152;SDS011;11242;50.536;12.688;2022-11-14T02:45:21;20.23;;;14.40;;
22152;SDS011;11242;50.536;12.688;2022-11-14T02:48:05;21.75;;;14.80;;
22152;SDS011;11242;50.536;12.688;2022-11-14T02:50:49;19.35;;;14.43;;
22152;SDS011;11242;50.536;12.688;2022-11-14T02:53:34;22.15;;;16.00;;
22152;SDS011;11242;50.536;12.688;2022-11-14T02:56:18;25.58;;;17.13;;
22152;SDS011;11242;50.536;12.688;2022-11-14T02:59:02;27.27;;;17.35;;
22152;SDS011;11242;50.536;12.688;2022-11-14T03:01:46;30.35;;;18.65;;
22152;SDS011;11242;50.536;12.688;2022-11-14T03:04:31;26.33;;;17.60;;
22152;SDS011;11242;50.536;12.688;2022-11-14T03:07:15;28.63;;;18.65;;
22152;SDS011;11242;50.536;12.688;2022-11-14T03:09:59;32.05;;;19.88;;
22152;SDS011;11242;50.536;12.688;2022-11-14T03:12:43;30.23;;;19.98;;
22152;SDS011;11242;50.536;12.688;2022-11-14T03:15:27;33.08;;;20.73;;
22152;SDS011;11242;50.536;12.688;2022-11-14T03:18:12;34.35;;;20.98;;
22152;SDS011;11242;50.536;12.688;2022-11-14T03:20:56;31.45;;;19.92;;
22152;SDS011;11242;50.536;12.688;2022-11-14T03:23:47;27.27;;;19.17;;
22152;SDS011;11242;50.536;12.688;2022-11-14T03:26:31;37.05;;;20.88;;
22152;SDS011;11242;50.536;12.688;2022-11-14T03:29:15;33.00;;;21.40;;
22152;SDS011;11242;50.536;12.688;2022-11-14T03:31:59;33.70;;;20.38;;
22152;SDS011;11242;50.536;12.688;2022-11-14T03:34:44;29.50;;;19.70;;
22152;SDS011;11242;50.536;12.688;2022-11-14T03:37:28;26.33;;;17.65;;
22152;SDS011;11242;50.536;12.688;2022-11-14T03:40:12;29.50;;;19.27;;
22152;SDS011;11242;50.536;12.688;2022-11-14T03:42:56;26.20;;;17.63;;
22152;SDS011;11242;50.536;12.688;2022-11-14T03:45:41;23.60;;;15.77;;
22152;SDS011;11242;50.536;12.688;2022-11-14T03:48:25;21.30;;;14.32;;
22152;SDS011;11242;50.536;12.688;2022-11-14T03:51:10;20.77;;;14.77;;
22152;SDS011;11242;50.536;12.688;2022-11-14T03:53:54;20.25;;;14.55;;
22152;SDS011;11242;50.536;12.688;2022-11-14T03:56:38;20.65;;;14.55;;
22152;SDS011;11242;50.536;12.688;2022-11-14T03:59:22;29.02;;;18.83;;
22152;SDS011;11242;50.536;12.688;2022-11-14T04:02:06;25.40;;;17.40;;
22152;SDS011;11242;50.536;12.688;2022-11-14T04:04:51;23.20;;;15.90;;
22152;SDS011;11242;50.536;12.688;2022-11-14T04:07:35;26.60;;;18.45;;
22152;SDS011;11242;50.536;12.688;2022-11-14T04:10:19;25.92;;;18.42;;
22152;SDS011;11242;50.536;12.688;2022-11-14T04:13:04;25.83;;;18.15;;
22152;SDS011;11242;50.536;12.688;2022-11-14T04:15:53;34.15;;;21.70;;
22152;SDS011;11242;50.536;12.688;2022-11-14T04:18:38;38.58;;;23.52;;
22152;SDS011;11242;50.536;12.688;2022-11-14T04:21:22;31.45;;;20.42;;
22152;SDS011;11242;50.536;12.688;2022-11-14T04:24:06;33.92;;;22.02;;
22152;SDS011;11242;50.536;12.688;2022-11-14T04:26:50;34.92;;;22.08;;
22152;SDS011;11242;50.536;12.688;2022-11-14T04:29:34;32.20;;;21.88;;
22152;SDS011;11242;50.536;12.688;2022-11-14T04:32:18;30.40;;;21.08;;
22152;SDS011;11242;50.536;12.688;2022-11-14T04:35:03;34.67;;;22.15;;
22152;SDS011;11242;50.536;12.688;2022-11-14T04:37:48;34.47;;;21.60;;
22152;SDS011;11242;50.536;12.688;2022-11-14T04:40:32;37.13;;;22.45;;
22152;SDS011;11242;50.536;12.688;2022-11-14T04:43:18;34.25;;;22.77;;
22152;SDS011;11242;50.536;12.688;2022-11-14T04:46:02;36.35;;;23.05;;
22152;SDS011;11242;50.536;12.688;2022-11-14T04:48:47;31.42;;;21.02;;
22152;SDS011;11242;50.536;12.688;2022-11-14T04:51:31;33.58;;;21.77;;
22152;SDS011;11242;50.536;12.688;2022-11-14T04:54:15;35.03;;;22.20;;
22152;SDS011;11242;50.536;12.688;2022-11-14T04:56:59;33.50;;;21.42;;
22152;SDS011;11242;50.536;12.688;2022-11-14T04:59:43;36.42;;;21.80;;
22152;SDS011;11242;50.536;12.688;2022-11-14T05:02:29;35.47;;;22.88;;
22152;SDS011;11242;50.536;12.688;2022-11-14T05:05:14;35.80;;;22.65;;
22152;SDS011;11242;50.536;12.688;2022-11-14T05:07:59;39.00;;;22.15;;
22152;SDS011;11242;50.536;12.688;2022-11-14T05:10:43;34.15;;;22.63;;
22152;SDS011;11242;50.536;12.688;2022-11-14T05:13:28;40.20;;;25.05;;
22152;SDS011;11242;50.536;12.688;2022-11-14T05:16:13;36.55;;;23.42;;
22152;SDS011;11242;50.536;12.688;2022-11-14T05:18:57;41.83;;;24.13;;
22152;SDS011;11242;50.536;12.688;2022-11-14T05:21:42;41.38;;;25.98;;
22152;SDS011;11242;50.536;12.688;2022-11-14T05:24:26;44.22;;;26.58;;
22152;SDS011;11242;50.536;12.688;2022-11-14T05:27:11;45.97;;;26.90;;
22152;SDS011;11242;50.536;12.688;2022-11-14T05:29:55;42.95;;;26.15;;
22152;SDS011;11242;50.536;12.688;2022-11-14T05:32:39;49.60;;;25.75;;
22152;SDS011;11242;50.536;12.688;2022-11-14T05:35:23;46.47;;;27.02;;
22152;SDS011;11242;50.536;12.688;2022-11-14T05:38:08;45.45;;;26.52;;
22152;SDS011;11242;50.536;12.688;2022-11-14T05:40:52;41.65;;;25.73;;
22152;SDS011;11242;50.536;12.688;2022-11-14T05:43:36;49.38;;;26.60;;
22152;SDS011;11242;50.536;12.688;2022-11-14T05:46:21;52.58;;;33.08;;
22152;SDS011;11242;50.536;12.688;2022-11-14T05:49:05;54.28;;;31.02;;
22152;SDS011;11242;50.536;12.688;2022-11-14T05:51:49;71.55;;;41.40;;
22152;SDS011;11242;50.536;12.688;2022-11-14T05:54:33;64.47;;;36.45;;
22152;SDS011;11242;50.536;12.688;2022-11-14T05:57:17;54.63;;;31.70;;
22152;SDS011;11242;50.536;12.688;2022-11-14T06:00:02;50.35;;;29.30;;
22152;SDS011;11242;50.536;12.688;2022-11-14T06:02:50;53.05;;;30.25;;
22152;SDS011;11242;50.536;12.688;2022-11-14T06:05:38;50.15;;;30.30;;
22152;SDS011;11242;50.536;12.688;2022-11-14T06:08:22;52.00;;;27.35;;
22152;SDS011;11242;50.536;12.688;2022-11-14T06:11:07;54.15;;;31.90;;
22152;SDS011;11242;50.536;12.688;2022-11-14T06:13:53;51.35;;;29.13;;
22152;SDS011;11242;50.536;12.688;2022-11-14T06:16:37;51.13;;;29.02;;
22152;SDS011;11242;50.536;12.688;2022-11-14T06:19:22;54.05;;;29.50;;
22152;SDS011;11242;50.536;12.688;2022-11-14T06:22:06;49.78;;;28.52;;
22152;SDS011;11242;50.536;12.688;2022-11-14T06:24:50;49.30;;;28.48;;
22152;SDS011;11242;50.536;12.688;2022-11-14T06:27:34;49.95;;;28.40;;
22152;SDS011;11242;50.536;12.688;2022-11-14T06:30:18;52.85;;;28.17;;
22152;SDS011;11242;50.536;12.688;2022-11-14T06:33:03;51.92;;;28.83;;
22152;SDS011;11242;50.536;12.688;2022-11-14T06:35:47;59.63;;;33.10;;
22152;SDS011;11242;50.536;12.688;2022-11-14T06:38:31;62.20;;;35.15;;
22152;SDS011;11242;50.536;12.688;2022-11-14T06:41:18;53.72;;;29.85;;
22152;SDS011;11242;50.536;12.688;2022-11-14T06:44:03;56.35;;;31.52;;
22152;SDS011;11242;50.536;12.688;2022-11-14T06:46:51;66.07;;;35.95;;
22152;SDS011;11242;50.536;12.688;2022-11-14T06:49:35;61.45;;;33.70;;
22152;SDS011;11242;50.536;12.688;2022-11-14T06:52:19;110.55;;;53.65;;
22152;SDS011;11242;50.536;12.688;2022-11-14T06:55:04;118.18;;;55.13;;
22152;SDS011;11242;50.536;12.688;2022-11-14T06:57:52;96.03;;;46.22;;
22152;SDS011;11242;50.536;12.688;2022-11-14T07:00:37;85.22;;;43.13;;
22152;SDS011;11242;50.536;12.688;2022-11-14T07:03:21;102.88;;;55.47;;
22152;SDS011;11242;50.536;12.688;2022-11-14T07:06:05;85.30;;;44.65;;
22152;SDS011;11242;50.536;12.688;2022-11-14T07:08:51;76.50;;;39.92;;
22152;SDS011;11242;50.536;12.688;2022-11-14T07:11:36;66.63;;;35.25;;
22152;SDS011;11242;50.536;12.688;2022-11-14T07:14:20;127.63;;;66.55;;
22152;SDS011;11242;50.536;12.688;2022-11-14T07:17:04;90.70;;;49.63;;
22152;SDS011;11242;50.536;12.688;2022-11-14T07:19:49;118.78;;;60.50;;
22152;SDS011;11242;50.536;12.688;2022-11-14T07:22:33;84.88;;;48.65;;
22152;SDS011;11242;50.536;12.688;2022-11-14T07:25:17;84.88;;;45.15;;
22152;SDS011;11242;50.536;12.688;2022-11-14T07:28:01;75.50;;;45.25;;
22152;SDS011;11242;50.536;12.688;2022-11-14T07:30:46;78.55;;;46.53;;
22152;SDS011;11242;50.536;12.688;2022-11-14T07:33:31;77.03;;;46.45;;
22152;SDS011;11242;50.536;12.688;2022-11-14T07:36:16;106.32;;;55.80;;
22152;SDS011;11242;50.536;12.688;2022-11-14T07:39:01;95.38;;;50.17;;
22152;SDS011;11242;50.536;12.688;2022-11-14T07:41:45;50.22;;;33.65;;
22152;SDS011;11242;50.536;12.688;2022-11-14T07:44:30;58.00;;;40.03;;
22152;SDS011;11242;50.536;12.688;2022-11-14T07:47:14;56.13;;;36.60;;
22152;SDS011;11242;50.536;12.688;2022-11-14T07:49:58;52.13;;;33.80;;
22152;SDS011;11242;50.536;12.688;2022-11-14T07:52:42;50.47;;;34.22;;
22152;SDS011;11242;50.536;12.688;2022-11-14T07:55:26;36.13;;;25.52;;
22152;SDS011;11242;50.536;12.688;2022-11-14T07:58:10;36.08;;;25.08;;
22152;SDS011;11242;50.536;12.688;2022-11-14T08:00:59;30.83;;;23.98;;
22152;SDS011;11242;50.536;12.688;2022-11-14T08:03:44;25.75;;;19.13;;
22152;SDS011;11242;50.536;12.688;2022-11-14T08:06:28;29.40;;;21.60;;
22152;SDS011;11242;50.536;12.688;2022-11-14T08:09:13;30.42;;;23.63;;
22152;SDS011;11242;50.536;12.688;2022-11-14T08:11:57;30.40;;;22.25;;
22152;SDS011;11242;50.536;12.688;2022-11-14T08:14:42;35.95;;;24.80;;
22152;SDS011;11242;50.536;12.688;2022-11-14T08:17:26;21.67;;;18.00;;
22152;SDS011;11242;50.536;12.688;2022-11-14T08:20:10;22.75;;;18.27;;
22152;SDS011;11242;50.536;12.688;2022-11-14T08:23:02;21.73;;;17.52;;
22152;SDS011;11242;50.536;12.688;2022-11-14T08:25:47;19.67;;;14.87;;
22152;SDS011;11242;50.536;12.688;2022-11-14T08:28:31;17.35;;;13.50;;
22152;SDS011;11242;50.536;12.688;2022-11-14T08:31:15;16.25;;;13.98;;
22152;SDS011;11242;50.536;12.688;2022-11-14T08:33:59;17.38;;;13.65;;
22152;SDS011;11242;50.536;12.688;2022-11-14T08:36:43;19.98;;;15.60;;
22152;SDS011;11242;50.536;12.688;2022-11-14T08:39:28;23.65;;;17.38;;
22152;SDS011;11242;50.536;12.688;2022-11-14T08:42:12;21.15;;;15.95;;
22152;SDS011;11242;50.536;12.688;2022-11-14T08:44:57;16.23;;;13.40;;
22152;SDS011;11242;50.536;12.688;2022-11-14T08:47:41;11.43;;;9.68;;
22152;SDS011;11242;50.536;12.688;2022-11-14T08:50:25;13.35;;;10.60;;
22152;SDS011;11242;50.536;12.688;2022-11-14T08:53:09;14.32;;;11.50;;
22152;SDS011;11242;50.536;12.688;2022-11-14T08:55:53;16.42;;;11.88;;
22152;SDS011;11242;50.536;12.688;2022-11-14T08:58:38;13.85;;;11.60;;
22152;SDS011;11242;50.536;12.688;2022-11-14T09:01:22;15.02;;;11.05;;
22152;SDS011;11242;50.536;12.688;2022-11-14T09:04:07;14.05;;;11.07;;
22152;SDS011;11242;50.536;12.688;2022-11-14T09:06:51;14.05;;;11.00;;
22152;SDS011;11242;50.536;12.688;2022-11-14T09:09:36;13.73;;;10.95;;
22152;SDS011;11242;50.536;12.688;2022-11-14T09:12:20;16.75;;;12.52;;
22152;SDS011;11242;50.536;12.688;2022-11-14T09:15:04;13.57;;;10.80;;
22152;SDS011;11242;50.536;12.688;2022-11-14T09:17:52;13.23;;;10.30;;
22152;SDS011;11242;50.536;12.688;2022-11-14T09:20:37;13.13;;;10.43;;
22152;SDS011;11242;50.536;12.688;2022-11-14T09:23:21;15.52;;;11.63;;
22152;SDS011;11242;50.536;12.688;2022-11-14T09:26:06;12.43;;;9.40;;
22152;SDS011;11242;50.536;12.688;2022-11-14T09:28:51;12.50;;;10.35;;
22152;SDS011;11242;50.536;12.688;2022-11-14T09:31:35;12.70;;;10.27;;
22152;SDS011;11242;50.536;12.688;2022-11-14T09:34:19;13.07;;;9.85;;
22152;SDS011;11242;50.536;12.688;2022-11-14T09:37:03;11.15;;;9.20;;
22152;SDS011;11242;50.536;12.688;2022-11-14T09:39:47;13.07;;;9.50;;
22152;SDS011;11242;50.536;12.688;2022-11-14T09:42:40;12.80;;;10.07;;
22152;SDS011;11242;50.536;12.688;2022-11-14T09:45:41;13.32;;;9.60;;
22152;SDS011;11242;50.536;12.688;2022-11-14T09:48:32;12.18;;;9.90;;
22152;SDS011;11242;50.536;12.688;2022-11-14T09:51:20;13.00;;;10.43;;
22152;SDS011;11242;50.536;12.688;2022-11-14T09:54:23;12.23;;;10.60;;
22152;SDS011;11242;50.536;12.688;2022-11-14T09:57:12;12.57;;;10.13;;
22152;SDS011;11242;50.536;12.688;2022-11-14T09:59:59;11.10;;;9.25;;
22152;SDS011;11242;50.536;12.688;2022-11-14T10:03:02;10.93;;;9.25;;
22152;SDS011;11242;50.536;12.688;2022-11-14T10:09:14;10.70;;;9.13;;
22152;SDS011;11242;50.536;12.688;2022-11-14T10:12:09;10.13;;;8.55;;
22152;SDS011;11242;50.536;12.688;2022-11-14T10:17:59;9.57;;;7.90;;
22152;SDS011;11242;50.536;12.688;2022-11-14T10:23:53;9.77;;;7.57;;
22152;SDS011;11242;50.536;12.688;2022-11-14T10:29:53;8.57;;;7.35;;
22152;SDS011;11242;50.536;12.688;2022-11-14T10:41:53;10.35;;;8.68;;
22152;SDS011;11242;50.536;12.688;2022-11-14T10:44:46;9.02;;;7.80;;
22152;SDS011;11242;50.536;12.688;2022-11-14T10:48:00;10.43;;;8.73;;
22152;SDS011;11242;50.536;12.688;2022-11-14T10:51:16;10.35;;;8.00;;
22152;SDS011;11242;50.536;12.688;2022-11-14T10:56:59;9.57;;;8.30;;
22152;SDS011;11242;50.536;12.688;2022-11-14T10:59:44;8.60;;;7.65;;
22152;SDS011;11242;50.536;12.688;2022-11-14T11:02:36;9.88;;;7.28;;
22152;SDS011;11242;50.536;12.688;2022-11-14T11:05:31;12.98;;;7.10;;
22152;SDS011;11242;50.536;12.688;2022-11-14T11:08:29;7.45;;;6.15;;
22152;SDS011;11242;50.536;12.688;2022-11-14T11:11:32;8.55;;;6.82;;
22152;SDS011;11242;50.536;12.688;2022-11-14T11:14:17;7.53;;;6.72;;
22152;SDS011;11242;50.536;12.688;2022-11-14T11:25:50;5.68;;;5.07;;
22152;SDS011;11242;50.536;12.688;2022-11-14T11:28:44;13.43;;;8.23;;
22152;SDS011;11242;50.536;12.688;2022-11-14T11:31:57;6.75;;;6.05;;
22152;SDS011;11242;50.536;12.688;2022-11-14T11:34:42;6.05;;;5.45;;
22152;SDS011;11242;50.536;12.688;2022-11-14T11:37:28;8.75;;;7.85;;
22152;SDS011;11242;50.536;12.688;2022-11-14T11:40:23;6.95;;;5.65;;
22152;SDS011;11242;50.536;12.688;2022-11-14T11:46:18;12.75;;;10.45;;
22152;SDS011;11242;50.536;12.688;2022-11-14T11:49:21;19.80;;;15.98;;
22152;SDS011;11242;50.536;12.688;2022-11-14T11:52:25;8.68;;;7.32;;
22152;SDS011;11242;50.536;12.688;2022-11-14T11:55:23;7.05;;;6.15;;
22152;SDS011;11242;50.536;12.688;2022-11-14T11:58:25;6.65;;;5.95;;
22152;SDS011;11242;50.536;12.688;2022-11-14T12:01:11;7.13;;;5.75;;
22152;SDS011;11242;50.536;12.688;2022-11-14T12:03:56;6.95;;;5.68;;
22152;SDS011;11242;50.536;12.688;2022-11-14T12:06:45;7.30;;;6.15;;
22152;SDS011;11242;50.536;12.688;2022-11-14T12:09:39;6.35;;;5.75;;
22152;SDS011;11242;50.536;12.688;2022-11-14T12:25:29;7.50;;;6.50;;
22152;SDS011;11242;50.536;12.688;2022-11-14T12:31:43;7.45;;;6.65;;
22152;SDS011;11242;50.536;12.688;2022-11-14T12:37:54;13.15;;;11.40;;
22152;SDS011;11242;50.536;12.688;2022-11-14T12:40:32;10.52;;;9.10;;
22152;SDS011;11242;50.536;12.688;2022-11-14T12:43:35;11.80;;;10.48;;
22152;SDS011;11242;50.536;12.688;2022-11-14T12:46:20;15.43;;;13.82;;
22152;SDS011;11242;50.536;12.688;2022-11-14T12:49:34;11.25;;;9.98;;
22152;SDS011;11242;50.536;12.688;2022-11-14T13:01:45;9.85;;;6.90;;
22152;SDS011;11242;50.536;12.688;2022-11-14T13:10:54;11.77;;;9.70;;
22152;SDS011;11242;50.536;12.688;2022-11-14T13:20:29;9.90;;;8.43;;
22152;SDS011;11242;50.536;12.688;2022-11-14T13:23:52;11.13;;;8.35;;
22152;SDS011;11242;50.536;12.688;2022-11-14T13:26:39;8.93;;;7.35;;
22152;SDS011;11242;50.536;12.688;2022-11-14T13:35:43;9.90;;;7.25;;
22152;SDS011;11242;50.536;12.688;2022-11-14T13:47:38;8.00;;;7.10;;
22152;SDS011;11242;50.536;12.688;2022-11-14T13:50:45;8.68;;;7.38;;
22152;SDS011;11242;50.536;12.688;2022-11-14T13:53:38;8.70;;;7.63;;
22152;SDS011;11242;50.536;12.688;2022-11-14T13:56:34;9.35;;;7.32;;
22152;SDS011;11242;50.536;12.688;2022-11-14T13:59:39;9.65;;;7.88;;
22152;SDS011;11242;50.536;12.688;2022-11-14T14:02:37;10.57;;;8.18;;
22152;SDS011;11242;50.536;12.688;2022-11-14T14:05:54;8.83;;;7.90;;
22152;SDS011;11242;50.536;12.688;2022-11-14T14:21:07;11.25;;;8.68;;
22152;SDS011;11242;50.536;12.688;2022-11-14T14:28:01;10.40;;;8.00;;
22152;SDS011;11242;50.536;12.688;2022-11-14T14:34:19;10.98;;;9.75;;
22152;SDS011;11242;50.536;12.688;2022-11-14T14:37:12;18.48;;;16.65;;
22152;SDS011;11242;50.536;12.688;2022-11-14T14:40:03;11.45;;;9.23;;
22152;SDS011;11242;50.536;12.688;2022-11-14T14:42:51;11.27;;;9.05;;
22152;SDS011;11242;50.536;12.688;2022-11-14T14:45:45;12.30;;;9.63;;
22152;SDS011;11242;50.536;12.688;2022-11-14T14:48:35;11.75;;;9.68;;
22152;SDS011;11242;50.536;12.688;2022-11-14T14:51:33;16.63;;;9.98;;
22152;SDS011;11242;50.536;12.688;2022-11-14T14:54:23;13.88;;;10.65;;
22152;SDS011;11242;50.536;12.688;2022-11-14T14:57:14;12.48;;;10.25;;
22152;SDS011;11242;50.536;12.688;2022-11-14T15:00:02;12.70;;;9.88;;
22152;SDS011;11242;50.536;12.688;2022-11-14T15:02:50;12.05;;;9.95;;
22152;SDS011;11242;50.536;12.688;2022-11-14T15:05:38;12.98;;;10.52;;
22152;SDS011;11242;50.536;12.688;2022-11-14T15:08:22;13.52;;;10.10;;
22152;SDS011;11242;50.536;12.688;2022-11-14T15:11:06;14.75;;;11.05;;
22152;SDS011;11242;50.536;12.688;2022-11-14T15:13:51;13.65;;;10.85;;
22152;SDS011;11242;50.536;12.688;2022-11-14T15:16:41;17.10;;;11.18;;
22152;SDS011;11242;50.536;12.688;2022-11-14T15:19:39;14.63;;;11.05;;
22152;SDS011;11242;50.536;12.688;2022-11-14T15:22:26;14.40;;;11.60;;
22152;SDS011;11242;50.536;12.688;2022-11-14T15:27:56;16.38;;;12.75;;
22152;SDS011;11242;50.536;12.688;2022-11-14T15:30:54;19.13;;;13.80;;
22152;SDS011;11242;50.536;12.688;2022-11-14T15:33:43;18.50;;;13.82;;
22152;SDS011;11242;50.536;12.688;2022-11-14T15:36:28;18.63;;;14.02;;
22152;SDS011;11242;50.536;12.688;2022-11-14T15:39:21;20.98;;;15.02;;
22152;SDS011;11242;50.536;12.688;2022-11-14T15:48:21;21.58;;;15.30;;
22152;SDS011;11242;50.536;12.688;2022-11-14T15:51:05;23.40;;;17.45;;
22152;SDS011;11242;50.536;12.688;2022-11-14T15:53:49;24.98;;;17.08;;
22152;SDS011;11242;50.536;12.688;2022-11-14T15:56:36;23.77;;;17.90;;
22152;SDS011;11242;50.536;12.688;2022-11-14T15:59:20;24.33;;;16.38;;
22152;SDS011;11242;50.536;12.688;2022-11-14T16:02:26;28.67;;;16.67;;
22152;SDS011;11242;50.536;12.688;2022-11-14T16:05:12;24.40;;;17.42;;
22152;SDS011;11242;50.536;12.688;2022-11-14T16:07:57;33.50;;;18.92;;
22152;SDS011;11242;50.536;12.688;2022-11-14T16:10:41;27.35;;;18.55;;
22152;SDS011;11242;50.536;12.688;2022-11-14T16:13:25;28.02;;;20.15;;
22152;SDS011;11242;50.536;12.688;2022-11-14T16:16:10;30.48;;;19.30;;
22152;SDS011;11242;50.536;12.688;2022-11-14T16:18:54;30.35;;;20.05;;
22152;SDS011;11242;50.536;12.688;2022-11-14T16:21:38;30.95;;;19.60;;
22152;SDS011;11242;50.536;12.688;2022-11-14T16:24:23;30.73;;;19.42;;
22152;SDS011;11242;50.536;12.688;2022-11-14T16:27:07;33.55;;;20.25;;
22152;SDS011;11242;50.536;12.688;2022-11-14T16:29:52;28.85;;;20.30;;
22152;SDS011;11242;50.536;12.688;2022-11-14T16:32:37;28.52;;;21.08;;
22152;SDS011;11242;50.536;12.688;2022-11-14T16:35:23;30.75;;;19.92;;
22152;SDS011;11242;50.536;12.688;2022-11-14T16:38:10;30.20;;;20.55;;
22152;SDS011;11242;50.536;12.688;2022-11-14T16:40:55;32.70;;;21.02;;
22152;SDS011;11242;50.536;12.688;2022-11-14T16:43:39;33.83;;;22.83;;
22152;SDS011;11242;50.536;12.688;2022-11-14T16:46:23;32.97;;;21.95;;
22152;SDS011;11242;50.536;12.688;2022-11-14T16:49:10;31.05;;;22.63;;
22152;SDS011;11242;50.536;12.688;2022-11-14T16:51:58;32.10;;;22.13;;
22152;SDS011;11242;50.536;12.688;2022-11-14T16:54:47;34.03;;;22.52;;
22152;SDS011;11242;50.536;12.688;2022-11-14T16:57:32;33.08;;;21.67;;
22152;SDS011;11242;50.536;12.688;2022-11-14T17:00:16;33.15;;;20.42;;
22152;SDS011;11242;50.536;12.688;2022-11-14T17:03:00;33.65;;;21.10;;
22152;SDS011;11242;50.536;12.688;2022-11-14T17:05:45;36.17;;;26.20;;
22152;SDS011;11242;50.536;12.688;2022-11-14T17:08:31;30.83;;;20.65;;
22152;SDS011;11242;50.536;12.688;2022-11-14T17:11:15;34.35;;;23.45;;
22152;SDS011;11242;50.536;12.688;2022-11-14T17:14:00;33.47;;;21.85;;
22152;SDS011;11242;50.536;12.688;2022-11-14T17:16:44;28.83;;;21.17;;
22152;SDS011;11242;50.536;12.688;2022-11-14T17:19:29;30.02;;;19.25;;
22152;SDS011;11242;50.536;12.688;2022-11-14T17:22:13;26.42;;;19.92;;
22152;SDS011;11242;50.536;12.688;2022-11-14T17:24:59;44.33;;;29.20;;
22152;SDS011;11242;50.536;12.688;2022-11-14T17:27:43;28.27;;;20.10;;
22152;SDS011;11242;50.536;12.688;2022-11-14T17:30:27;27.17;;;19.73;;
22152;SDS011;11242;50.536;12.688;2022-11-14T17:33:12;29.63;;;19.90;;
22152;SDS011;11242;50.536;12.688;2022-11-14T17:35:56;28.60;;;20.08;;
22152;SDS011;11242;50.536;12.688;2022-11-14T17:38:46;26.88;;;19.92;;
22152;SDS011;11242;50.536;12.688;2022-11-14T17:41:30;29.42;;;19.50;;
22152;SDS011;11242;50.536;12.688;2022-11-14T17:44:16;26.25;;;18.23;;
22152;SDS011;11242;50.536;12.688;2022-11-14T17:47:00;29.73;;;20.23;;
22152;SDS011;11242;50.536;12.688;2022-11-14T17:49:44;27.27;;;19.02;;
22152;SDS011;11242;50.536;12.688;2022-11-14T17:52:28;25.20;;;18.88;;
22152;SDS011;11242;50.536;12.688;2022-11-14T17:55:13;27.02;;;18.58;;
22152;SDS011;11242;50.536;12.688;2022-11-14T17:57:57;27.02;;;19.02;;
22152;SDS011;11242;50.536;12.688;2022-11-14T18:00:41;28.23;;;19.40;;
22152;SDS011;11242;50.536;12.688;2022-11-14T18:03:26;27.27;;;20.23;;
22152;SDS011;11242;50.536;12.688;2022-11-14T18:06:12;28.60;;;20.08;;